Time;durP1;ratioP1;P1;durP2;ratioP2;P2;SDS_P1;SDS_P2;PMS_P1;PMS_P2;Temp;Humidity;BMP_temperature;BMP_pressure;BME280_temperature;BME280_humidity;BME280_pressure;Samples;Min_cycle;Max_cycle;Signal;HPM_P1;HPM_P2
2021/12/20 00:01:24;;;;;;;30.10;4.55;;;6.30;99.90;;;;;;5072315;28;20086;-81
2021/12/20 00:04:10;;;;;;;;;;;6.70;99.90;;;;;;5071870;28;20439;-81
2021/12/20 00:06:53;;;;;;;27.90;5.57;;;6.30;99.90;;;;;;5071685;28;20450;-81
2021/12/20 00:09:38;;;;;;;28.75;5.30;;;7.10;99.90;;;;;;5056468;28;20086;-82
2021/12/20 00:12:22;;;;;;;23.85;4.38;;;6.20;99.90;;;;;;5057160;28;20089;-81
2021/12/20 00:15:07;;;;;;;35.55;4.97;;;6.20;99.90;;;;;;5072406;28;20036;-81
2021/12/20 00:17:52;;;;;;;31.40;5.50;;;;;;;;;;5070595;28;20034;-81
2021/12/20 00:20:36;;;;;;;26.10;5.38;;;6.20;99.90;;;;;;5056494;28;20090;-82
2021/12/20 00:23:21;;;;;;;20.23;4.80;;;6.20;99.90;;;;;;5071378;28;20071;-82
2021/12/20 00:26:05;;;;;;;;;;;6.20;99.90;;;;;;5072830;28;20125;-81
2021/12/20 00:28:49;;;;;;;26.20;4.78;;;;;;;;;;5074744;28;19915;-82
2021/12/20 00:31:34;;;;;;;36.58;7.22;;;6.20;99.90;;;;;;5076197;28;20531;-82
2021/12/20 00:34:18;;;;;;;;;;;7.20;99.90;;;;;;5076712;28;20035;-81
2021/12/20 00:37:06;;;;;;;32.03;6.10;;;6.20;99.90;;;;;;5060717;28;19962;-81
2021/12/20 00:42:59;;;;;;;30.92;5.78;;;6.20;99.90;;;;;;5075465;28;20522;-81
2021/12/20 00:45:44;;;;;;;24.98;4.20;;;;;;;;;;5075434;28;20047;-82
2021/12/20 00:48:29;;;;;;;32.65;5.20;;;;;;;;;;5074882;28;20431;-82
2021/12/20 00:51:13;;;;;;;26.92;5.47;;;6.20;99.90;;;;;;5075765;28;20086;-82
2021/12/20 00:53:57;;;;;;;;;;;6.20;99.90;;;;;;5075597;28;20079;-82
2021/12/20 00:56:41;;;;;;;27.50;4.18;;;6.20;99.90;;;;;;5075238;28;20387;-83
2021/12/20 00:59:26;;;;;;;22.73;4.28;;;6.50;99.90;;;;;;5060727;28;20074;-82
2021/12/20 01:02:10;;;;;;;29.42;4.90;;;7.60;99.90;;;;;;5074588;28;20067;-81
2021/12/20 01:04:54;;;;;;;;;;;6.10;99.90;;;;;;5074440;28;20036;-81
2021/12/20 01:07:39;;;;;;;25.77;4.15;;;6.10;99.90;;;;;;5075615;28;19994;-81
2021/12/20 01:10:25;;;;;;;30.17;4.88;;;6.00;99.90;;;;;;5075332;28;20075;-82
2021/12/20 01:13:09;;;;;;;30.05;4.00;;;;;;;;;;5075574;28;20127;-82
2021/12/20 01:15:56;;;;;;;28.40;4.35;;;6.10;99.90;;;;;;5074871;28;20086;-82
2021/12/20 01:18:41;;;;;;;27.10;4.93;;;6.20;99.90;;;;;;5060568;28;20400;-81
2021/12/20 01:21:26;;;;;;;37.55;5.95;;;7.80;99.90;;;;;;5074206;28;20094;-82
2021/12/20 01:24:11;;;;;;;25.33;4.20;;;;;;;;;;5075195;28;20488;-82
2021/12/20 01:26:55;;;;;;;25.40;4.63;;;6.00;99.90;;;;;;5074579;28;20412;-81
2021/12/20 01:29:40;;;;;;;27.52;4.60;;;;;;;;;;5075030;28;20174;-82
2021/12/20 01:32:24;;;;;;;30.15;4.35;;;6.00;99.90;;;;;;5075028;28;20082;-82
2021/12/20 01:35:10;;;;;;;32.90;4.47;;;6.00;99.90;;;;;;5073427;28;20075;-82
2021/12/20 01:37:56;;;;;;;26.20;4.45;;;5.90;99.90;;;;;;5073696;28;20038;-82
2021/12/20 01:40:40;;;;;;;19.58;4.18;;;;;;;;;;5074954;28;20450;-82
2021/12/20 01:43:25;;;;;;;27.38;4.93;;;5.90;99.90;;;;;;5074854;28;20110;-82
2021/12/20 01:46:08;;;;;;;;;;;6.10;99.90;;;;;;5074691;28;20042;-82
2021/12/20 01:48:53;;;;;;;19.63;3.58;;;6.60;99.90;;;;;;5058307;28;19938;-82
2021/12/20 01:54:31;;;;;;;17.92;3.05;;;;;;;;;;5074609;28;19962;-82
2021/12/20 01:57:15;;;;;;;28.20;3.67;;;5.80;99.90;;;;;;5074629;28;20402;-82
2021/12/20 02:00:00;;;;;;;15.40;2.65;;;;;;;;;;5073062;28;20113;-82
2021/12/20 02:02:44;;;;;;;15.40;3.58;;;5.80;99.90;;;;;;5073665;28;20047;-81
2021/12/20 02:08:26;;;;;;;14.30;2.47;;;5.80;99.90;;;;;;5074423;28;19931;-82
2021/12/20 02:11:11;;;;;;;16.77;3.40;;;;;;;;;;5073846;28;20102;-81
2021/12/20 02:13:55;;;;;;;11.38;2.83;;;;;;;;;;5073751;28;20115;-82
2021/12/20 02:16:41;;;;;;;13.98;2.50;;;5.80;99.90;;;;;;5074229;28;20085;-81
2021/12/20 02:19:26;;;;;;;11.70;2.13;;;5.80;99.90;;;;;;5073125;28;20537;-82
2021/12/20 02:22:11;;;;;;;15.40;2.75;;;;;;;;;;5058670;28;20035;-82
2021/12/20 02:24:58;;;;;;;12.77;2.25;;;5.70;99.90;;;;;;5067116;28;20078;-82
2021/12/20 02:27:44;;;;;;;8.25;2.03;;;5.70;99.90;;;;;;5070979;28;20131;-81
2021/12/20 02:39:17;;;;;;;13.77;2.55;;;;;;;;;;5064154;28;20083;-82
2021/12/20 02:42:01;;;;;;;16.13;2.20;;;;;;;;;;5068928;28;20039;-82
2021/12/20 02:48:04;;;;;;;10.43;2.45;;;6.30;99.90;;;;;;5050953;28;20048;-82
2021/12/20 02:50:53;;;;;;;13.05;2.38;;;5.60;99.90;;;;;;5051521;28;20087;-81
2021/12/20 02:53:37;;;;;;;13.38;2.10;;;5.60;99.90;;;;;;5052593;28;20075;-82
2021/12/20 02:56:22;;;;;;;10.90;2.28;;;5.50;99.90;;;;;;5052111;28;20043;-82
2021/12/20 02:59:08;;;;;;;13.27;2.10;;;5.60;99.90;;;;;;5037918;28;20496;-82
2021/12/20 03:02:00;;;;;;;14.77;2.67;;;5.50;99.90;;;;;;5038417;28;20102;-82
2021/12/20 03:04:44;;;;;;;8.40;2.40;;;5.50;99.90;;;;;;5053336;28;20036;-82
2021/12/20 03:07:37;;;;;;;10.15;2.63;;;;;;;;;;5053270;28;20040;-82
2021/12/20 03:10:24;;;;;;;16.40;2.60;;;5.40;99.90;;;;;;5052344;28;20047;-82
2021/12/20 03:13:10;;;;;;;13.75;2.50;;;;;;;;;;5052601;28;20498;-82
2021/12/20 03:15:54;;;;;;;12.20;2.35;;;;;;;;;;5053095;28;20044;-81
2021/12/20 03:18:39;;;;;;;10.10;1.77;;;;;;;;;;5052008;28;20074;-82
2021/12/20 03:21:23;;;;;;;14.32;2.00;;;5.40;99.90;;;;;;5052444;28;20039;-82
2021/12/20 03:24:08;;;;;;;10.27;2.53;;;5.40;99.90;;;;;;5051538;28;20072;-82
2021/12/20 03:26:52;;;;;;;15.30;3.05;;;5.40;99.90;;;;;;5051925;28;20128;-81
2021/12/20 03:29:36;;;;;;;;;;;5.30;99.90;;;;;;5053195;28;20040;-82
2021/12/20 03:32:21;;;;;;;9.57;2.42;;;5.20;99.90;;;;;;5052368;28;19919;-82
2021/12/20 03:35:05;;;;;;;12.45;1.80;;;5.30;99.90;;;;;;5051287;28;20457;-83
2021/12/20 03:37:50;;;;;;;14.80;2.70;;;5.20;99.90;;;;;;5052681;28;20063;-81
2021/12/20 03:40:34;;;;;;;;;;;6.30;99.90;;;;;;5052177;28;20511;-82
2021/12/20 03:43:18;;;;;;;9.88;2.17;;;4.90;99.90;;;;;;5051086;28;19919;-82
2021/12/20 03:46:05;;;;;;;13.77;2.10;;;5.00;99.90;;;;;;5052597;28;20064;-82
2021/12/20 03:48:50;;;;;;;8.65;2.22;;;;;;;;;;5051676;28;20455;-82
2021/12/20 03:51:35;;;;;;;10.98;2.58;;;4.80;99.90;;;;;;5051642;28;20476;-82
2021/12/20 03:54:20;;;;;;;8.43;1.70;;;;;;;;;;5051996;28;20048;-82
2021/12/20 03:57:05;;;;;;;13.10;2.47;;;;;;;;;;5052428;28;20040;-81
2021/12/20 03:59:51;;;;;;;13.77;2.60;;;;;;;;;;5052407;28;20067;-81
2021/12/20 04:02:41;;;;;;;10.50;1.80;;;;;;;;;;5052247;28;20044;-82
2021/12/20 04:05:25;;;;;;;14.93;2.20;;;;;;;;;;5050809;28;20166;-82
2021/12/20 04:08:10;;;;;;;13.80;2.35;;;;;;;;;;5050804;28;20223;-82
2021/12/20 04:10:54;;;;;;;14.15;2.08;;;4.50;99.90;;;;;;5052270;28;20102;-82
2021/12/20 04:13:40;;;;;;;13.50;1.75;;;;;;;;;;5037354;28;20045;-82
2021/12/20 04:16:25;;;;;;;12.20;1.95;;;4.40;99.90;;;;;;5050672;28;20122;-82
2021/12/20 04:19:09;;;;;;;10.23;2.05;;;;;;;;;;5051081;28;20142;-82
2021/12/20 04:21:54;;;;;;;9.45;1.90;;;;;;;;;;5051126;28;20044;-82
2021/12/20 04:24:38;;;;;;;12.05;1.88;;;;;;;;;;5051163;28;20045;-82
2021/12/20 04:27:22;;;;;;;11.43;1.83;;;4.30;99.90;;;;;;5050529;28;20075;-82
2021/12/20 04:30:10;;;;;;;11.75;2.47;;;5.80;99.90;;;;;;5050994;28;20087;-81
2021/12/20 04:32:54;;;;;;;14.18;3.22;;;4.20;99.90;;;;;;5051080;28;20059;-82
2021/12/20 04:35:39;;;;;;;12.05;1.90;;;;;;;;;;5051987;28;20166;-82
2021/12/20 04:38:26;;;;;;;14.02;2.42;;;;;;;;;;5050541;28;20040;-82
2021/12/20 04:41:11;;;;;;;13.85;2.00;;;;;;;;;;5051997;28;20113;-81
2021/12/20 04:43:55;;;;;;;13.80;2.72;;;4.00;99.90;;;;;;5037004;28;20044;-81
2021/12/20 04:46:40;;;;;;;10.82;2.58;;;;;;;;;;5050860;28;20048;-82
2021/12/20 04:49:24;;;;;;;13.98;2.25;;;3.90;99.90;;;;;;5050301;28;20044;-82
2021/12/20 04:52:09;;;;;;;13.57;2.17;;;;;;;;;;5051001;28;20108;-81
2021/12/20 04:54:53;;;;;;;13.25;2.75;;;;;;;;;;5051053;28;20048;-82
2021/12/20 04:57:39;;;;;;;14.32;2.63;;;3.70;99.90;;;;;;5051207;28;20424;-81
2021/12/20 05:00:27;;;;;;;13.90;2.13;;;3.60;99.90;;;;;;5050275;28;20517;-82
2021/12/20 05:03:12;;;;;;;4.80;2.17;;;;;;;;;;5050848;28;20480;-81
2021/12/20 05:05:57;;;;;;;11.15;1.70;;;;;;;;;;5050799;28;20064;-82
2021/12/20 05:08:49;;;;;;;9.85;2.50;;;3.50;99.90;;;;;;5050328;28;20110;-82
2021/12/20 05:11:34;;;;;;;10.48;2.15;;;4.00;99.90;;;;;;5037062;28;20067;-82
2021/12/20 05:14:19;;;;;;;11.95;1.88;;;4.70;99.90;;;;;;5053241;28;20047;-83
2021/12/20 05:17:03;;;;;;;20.83;3.88;;;;;;;;;;5054550;28;20094;-82
2021/12/20 05:19:48;;;;;;;14.63;2.15;;;;;;;;;;5054378;28;20060;-82
2021/12/20 05:22:33;;;;;;;12.27;2.22;;;;;;;;;;5053754;28;20040;-81
2021/12/20 05:25:17;;;;;;;12.73;2.08;;;3.10;99.90;;;;;;5054302;28;20048;-81
2021/12/20 05:28:02;;;;;;;9.95;1.65;;;4.60;99.90;;;;;;5054183;28;20460;-81
2021/12/20 05:30:49;;;;;;;10.60;2.50;;;;;;;;;;5054046;28;20062;-82
2021/12/20 05:33:34;;;;;;;9.95;2.30;;;;;;;;;;5053493;28;20579;-81
2021/12/20 05:36:19;;;;;;;10.20;2.08;;;;;;;;;;5055113;28;20044;-82
2021/12/20 05:39:04;;;;;;;12.57;2.17;;;2.90;99.90;;;;;;5053947;28;20550;-81
2021/12/20 05:41:48;;;;;;;14.45;2.42;;;3.60;99.90;;;;;;5053953;28;20110;-82
2021/12/20 05:44:32;;;;;;;;;;;4.20;99.90;;;;;;5065927;28;20059;-82
2021/12/20 05:47:17;;;;;;;11.73;2.15;;;2.90;99.90;;;;;;5075007;28;20272;-82
2021/12/20 05:50:03;;;;;;;8.82;2.30;;;2.70;99.90;;;;;;5073925;28;20047;-81
2021/12/20 05:52:48;;;;;;;14.43;4.95;;;2.60;99.90;;;;;;5073478;28;20047;-83
2021/12/20 05:55:32;;;;;;;6.50;1.70;;;2.60;99.90;;;;;;5059035;28;20090;-83
2021/12/20 05:58:16;;;;;;;15.80;2.20;;;2.60;99.90;;;;;;5059478;28;20044;-82
2021/12/20 06:01:00;;;;;;;11.48;2.75;;;2.50;99.90;;;;;;5073606;28;20071;-82
2021/12/20 06:03:44;;;;;;;10.00;2.05;;;2.50;99.90;;;;;;5073898;28;20036;-82
2021/12/20 06:06:31;;;;;;;15.23;2.33;;;2.50;99.90;;;;;;5051962;28;20443;-82
2021/12/20 06:09:15;;;;;;;9.80;2.03;;;2.50;99.90;;;;;;5072804;28;20113;-82
2021/12/20 06:11:59;;;;;;;;;;;2.50;99.90;;;;;;5074433;28;20105;-82
2021/12/20 06:14:43;;;;;;;9.40;2.70;;;2.40;99.90;;;;;;5058451;28;19927;-82
2021/12/20 06:17:28;;;;;;;8.80;2.00;;;2.40;99.90;;;;;;5071102;28;20051;-82
2021/12/20 06:20:12;;;;;;;;;;;2.20;99.90;;;;;;5073598;28;20507;-82
2021/12/20 06:22:57;;;;;;;6.30;1.70;;;2.20;99.90;;;;;;5073136;28;19918;-82
2021/12/20 06:25:41;;;;;;;;;;;2.60;99.90;;;;;;5073813;28;20048;-82
2021/12/20 06:28:25;;;;;;;10.93;2.25;;;2.10;99.90;;;;;;5073141;28;20368;-82
2021/12/20 06:31:09;;;;;;;;;;;3.10;99.90;;;;;;5074061;28;20035;-82
2021/12/20 06:33:53;;;;;;;9.57;3.83;;;2.10;99.90;;;;;;5073755;28;19924;-82
2021/12/20 06:36:38;;;;;;;14.50;3.33;;;2.10;99.90;;;;;;5072288;28;20086;-82
2021/12/20 06:39:23;;;;;;;;;;;3.20;99.90;;;;;;5074342;28;20166;-82
2021/12/20 06:42:07;;;;;;;9.47;1.93;;;2.60;99.90;;;;;;5072777;28;19957;-82
2021/12/20 06:44:52;;;;;;;10.97;2.10;;;1.90;99.90;;;;;;5058084;28;20044;-82
2021/12/20 06:47:37;;;;;;;10.80;2.40;;;2.40;99.90;;;;;;5072167;28;20039;-83
2021/12/20 06:50:21;;;;;;;12.30;2.17;;;1.90;99.90;;;;;;5058229;28;20047;-82
2021/12/20 06:53:06;;;;;;;15.20;2.60;;;2.40;99.90;;;;;;5072531;28;20098;-82
2021/12/20 06:55:50;;;;;;;15.77;2.50;;;2.40;99.90;;;;;;5072868;28;20587;-82
2021/12/20 06:58:34;;;;;;;;;;;1.80;99.90;;;;;;5072316;28;20044;-83
2021/12/20 07:01:18;;;;;;;9.75;2.30;;;2.80;99.90;;;;;;5072428;28;19969;-82
2021/12/20 07:04:03;;;;;;;11.73;2.17;;;2.10;99.90;;;;;;5072299;28;20043;-82
2021/12/20 07:06:48;;;;;;;18.03;2.87;;;1.70;99.90;;;;;;5072686;28;20182;-82
2021/12/20 07:09:32;;;;;;;17.17;3.07;;;3.00;99.90;;;;;;5072926;28;20031;-83
2021/12/20 07:12:17;;;;;;;17.37;2.67;;;2.40;99.90;;;;;;5072243;28;20181;-82
2021/12/20 07:15:03;;;;;;;10.67;2.73;;;2.40;99.90;;;;;;5071580;28;20044;-83
2021/12/20 07:17:48;;;;;;;13.70;2.77;;;1.60;99.90;;;;;;5068902;28;20039;-83
2021/12/20 07:20:32;;;;;;;10.18;2.33;;;1.60;99.90;;;;;;5072709;28;20085;-83
2021/12/20 07:23:16;;;;;;;13.13;2.53;;;1.60;99.90;;;;;;5072000;28;20067;-83
2021/12/20 07:26:04;;;;;;;;;;;1.50;99.90;;;;;;5072503;28;20035;-86
2021/12/20 07:28:49;;;;;;;11.67;2.43;;;1.50;99.90;;;;;;5069581;28;19935;-82
2021/12/20 07:31:33;;;;;;;13.67;2.93;;;1.40;99.90;;;;;;5061224;28;20056;-82
2021/12/20 07:34:18;;;;;;;12.47;3.00;;;1.90;99.90;;;;;;5051067;28;20048;-82
2021/12/20 07:37:02;;;;;;;;;;;1.50;99.90;;;;;;5068980;28;20043;-82
2021/12/20 07:39:46;;;;;;;10.85;2.60;;;1.30;99.90;;;;;;5070729;28;19961;-82
2021/12/20 07:42:31;;;;;;;13.60;2.80;;;2.10;99.90;;;;;;5070712;28;20112;-82
2021/12/20 07:45:15;;;;;;;15.60;2.80;;;1.30;99.90;;;;;;5056315;28;20124;-82
2021/12/20 07:47:59;;;;;;;9.63;3.03;;;1.30;99.90;;;;;;5071689;28;20566;-82
2021/12/20 07:50:44;;;;;;;;;;;1.20;99.90;;;;;;5072298;28;20047;-83
2021/12/20 07:53:28;;;;;;;9.85;2.63;;;2.30;99.90;;;;;;5061332;28;19919;-82
2021/12/20 07:56:13;;;;;;;;;;;2.10;99.90;;;;;;5054116;28;20064;-82
2021/12/20 07:58:57;;;;;;;12.43;2.63;;;2.20;99.90;;;;;;5051687;28;19936;-82
2021/12/20 08:01:41;;;;;;;6.50;2.40;;;2.40;99.90;;;;;;5068172;28;20085;-83
2021/12/20 08:04:25;;;;;;;10.10;2.90;;;1.30;99.90;;;;;;5042716;28;20128;-82
2021/12/20 08:07:09;;;;;;;;;;;1.10;99.90;;;;;;5057579;28;20115;-82
2021/12/20 08:09:54;;;;;;;12.15;3.17;;;1.10;99.90;;;;;;5070255;28;19962;-82
2021/12/20 08:12:38;;;;;;;10.40;2.53;;;1.10;99.90;;;;;;5071094;28;20202;-82
2021/12/20 08:15:22;;;;;;;13.27;2.93;;;1.10;99.90;;;;;;5071128;28;20171;-82
2021/12/20 08:18:06;;;;;;;13.97;3.60;;;1.10;99.90;;;;;;5067752;28;20044;-82
2021/12/20 08:20:51;;;;;;;11.57;3.03;;;1.10;99.90;;;;;;5070595;28;20044;-83
2021/12/20 08:23:37;;;;;;;11.80;3.77;;;1.20;99.90;;;;;;5071143;28;20048;-83
2021/12/20 08:26:21;;;;;;;12.10;3.87;;;1.10;99.90;;;;;;5071262;28;20510;-83
2021/12/20 08:29:05;;;;;;;11.50;4.03;;;1.10;99.90;;;;;;5056232;28;20039;-82
2021/12/20 08:31:53;;;;;;;11.17;3.17;;;1.10;99.90;;;;;;5070328;28;20044;-83
2021/12/20 08:34:38;;;;;;;16.57;4.17;;;1.10;99.90;;;;;;5070853;28;20097;-83
2021/12/20 08:37:23;;;;;;;10.70;3.30;;;1.20;99.90;;;;;;5070788;28;20439;-83
2021/12/20 08:40:11;;;;;;;13.93;3.90;;;1.20;99.90;;;;;;5071509;28;20039;-83
2021/12/20 08:42:55;;;;;;;15.27;3.30;;;1.20;99.90;;;;;;5071418;28;20071;-83
2021/12/20 08:45:40;;;;;;;17.80;4.07;;;1.20;99.90;;;;;;5071038;28;20063;-82
2021/12/20 08:48:25;;;;;;;8.37;3.30;;;1.20;99.90;;;;;;5074288;28;20094;-83
2021/12/20 08:51:09;;;;;;;11.80;3.63;;;1.30;99.90;;;;;;5074240;28;20079;-83
2021/12/20 08:53:54;;;;;;;14.43;3.00;;;1.30;99.90;;;;;;5074148;28;20036;-83
2021/12/20 08:56:38;;;;;;;14.25;3.40;;;1.30;99.90;;;;;;5074731;28;20058;-83
2021/12/20 08:59:23;;;;;;;13.20;3.60;;;1.40;99.90;;;;;;5074566;28;20063;-82
2021/12/20 09:02:09;;;;;;;17.47;4.37;;;1.40;99.90;;;;;;5073998;28;20098;-83
2021/12/20 09:04:53;;;;;;;16.53;3.90;;;1.90;99.90;;;;;;5053993;28;20566;-83
2021/12/20 09:07:40;;;;;;;;;;;1.40;99.90;;;;;;5055117;28;20044;-83
2021/12/20 09:10:24;;;;;;;13.00;3.63;;;1.70;99.90;;;;;;5054454;28;20019;-83
2021/12/20 09:13:09;;;;;;;;;;;1.50;99.90;;;;;;5054275;28;20052;-83
2021/12/20 09:15:58;;;;;;;15.03;5.03;;;3.00;99.90;;;;;;5068036;28;19958;-84
2021/12/20 09:18:43;;;;;;;14.80;5.17;;;2.30;99.90;;;;;;5056595;28;20044;-83
2021/12/20 09:21:27;;;;;;;16.13;4.70;;;1.60;99.90;;;;;;5073272;28;20052;-83
2021/12/20 09:24:13;;;;;;;18.97;5.10;;;2.10;99.90;;;;;;5074391;28;20499;-83
2021/12/20 09:26:57;;;;;;;18.07;5.17;;;1.70;99.90;;;;;;5059488;28;20042;-83
2021/12/20 09:29:41;;;;;;;;;;;1.70;99.90;;;;;;5074266;28;20120;-83
2021/12/20 09:32:26;;;;;;;21.90;4.95;;;2.00;99.90;;;;;;5059683;28;19973;-84
2021/12/20 09:35:11;;;;;;;25.13;5.13;;;1.80;99.90;;;;;;5057598;28;20554;-83
2021/12/20 09:37:55;;;;;;;19.73;5.27;;;2.60;99.90;;;;;;5073659;28;20106;-84
2021/12/20 09:40:51;;;;;;;21.77;6.73;;;1.90;99.90;;;;;;5074084;28;20102;-83
2021/12/20 09:43:51;;;;;;;17.17;5.40;;;3.40;99.90;;;;;;5075030;28;20483;-83
2021/12/20 09:46:36;;;;;;;26.50;6.03;;;2.10;99.90;;;;;;5059897;28;20174;-83
2021/12/20 09:49:21;;;;;;;22.30;6.53;;;2.20;99.90;;;;;;5073679;28;20039;-83
2021/12/20 09:52:06;;;;;;;20.53;5.37;;;3.60;99.90;;;;;;5073133;28;20119;-83
2021/12/20 09:54:50;;;;;;;25.67;7.73;;;2.30;99.90;;;;;;5074688;28;20043;-83
2021/12/20 09:57:35;;;;;;;;;;;2.40;99.90;;;;;;5075218;28;20066;-83
2021/12/20 10:00:21;;;;;;;26.83;5.40;;;2.50;99.90;;;;;;5073346;28;20422;-83
2021/12/20 10:03:05;;;;;;;26.80;6.57;;;2.90;99.90;;;;;;5073655;28;20185;-83
2021/12/20 10:05:54;;;;;;;25.60;5.33;;;2.70;99.90;;;;;;5073553;28;20122;-83
2021/12/20 10:08:49;;;;;;;33.33;6.03;;;2.80;99.90;;;;;;5060042;28;20044;-83
2021/12/20 10:11:33;;;;;;;30.73;5.50;;;3.60;99.90;;;;;;5074434;28;20091;-83
2021/12/20 10:14:19;;;;;;;27.10;6.27;;;2.90;99.90;;;;;;5058105;28;20087;-83
2021/12/20 10:17:05;;;;;;;20.53;5.43;;;3.10;99.90;;;;;;5073733;28;20042;-84
2021/12/20 10:19:49;;;;;;;21.60;5.00;;;3.20;99.90;;;;;;5059340;28;20147;-83
2021/12/20 10:22:33;;;;;;;;;;;3.30;99.90;;;;;;5053515;28;20102;-83
2021/12/20 10:25:22;;;;;;;26.73;5.57;;;3.40;99.90;;;;;;5066753;28;19920;-83
2021/12/20 10:28:13;;;;;;;27.48;3.95;;;3.40;99.90;;;;;;5066626;28;20116;-83
2021/12/20 10:31:01;;;;;;;28.23;5.05;;;3.50;99.90;;;;;;5071323;28;20067;-83
2021/12/20 10:33:58;;;;;;;25.35;4.97;;;4.60;99.90;;;;;;5072946;28;20043;-83
2021/12/20 10:37:09;;;;;;;22.40;4.60;;;3.70;99.90;;;;;;5072939;28;20439;-82
2021/12/20 10:40:02;;;;;;;17.98;4.32;;;3.80;99.90;;;;;;5087225;28;20507;-83
2021/12/20 10:42:46;;;;;;;31.05;5.40;;;3.90;99.90;;;;;;5073863;28;20120;-83
2021/12/20 10:45:31;;;;;;;28.02;4.47;;;4.20;99.90;;;;;;5072787;28;20043;-83
2021/12/20 10:48:15;;;;;;;26.48;3.90;;;4.00;99.90;;;;;;5058031;28;20043;-83
2021/12/20 10:50:59;;;;;;;;;;;4.20;99.90;;;;;;5072935;28;20395;-83
2021/12/20 10:53:58;;;;;;;16.98;3.53;;;5.60;99.90;;;;;;5072560;28;19970;-83
2021/12/20 10:56:51;;;;;;;17.38;3.45;;;4.20;99.90;;;;;;5072427;28;20032;-83
2021/12/20 10:59:37;;;;;;;13.52;3.22;;;4.30;99.90;;;;;;5073369;28;20484;-83
2021/12/20 11:03:25;;;;;;;14.50;3.25;;;4.40;99.90;;;;;;5057533;28;20472;-83
2021/12/20 11:05:45;;;;;;;17.40;3.45;;;5.30;99.90;;;;;;5068997;28;20047;-83
2021/12/20 11:11:39;;;;;;;10.35;3.17;;;4.60;99.90;;;;;;5050965;28;20413;-83
2021/12/20 11:14:32;;;;;;;13.25;2.42;;;4.60;99.90;;;;;;5052643;28;20044;-83
2021/12/20 11:17:21;;;;;;;12.63;2.53;;;4.70;99.90;;;;;;5051631;28;20040;-84
2021/12/20 11:20:05;;;;;;;20.67;4.78;;;4.70;99.90;;;;;;5053052;28;20039;-83
2021/12/20 11:23:00;;;;;;;14.57;2.53;;;4.80;99.90;;;;;;5038069;28;20094;-83
2021/12/20 11:25:45;;;;;;;17.30;3.30;;;5.40;99.90;;;;;;5039344;28;20039;-83
2021/12/20 11:28:28;;;;;;;;;;;4.80;99.90;;;;;;5051797;28;20047;-85
2021/12/20 11:31:13;;;;;;;9.90;2.33;;;4.80;99.90;;;;;;5051605;28;19962;-86
2021/12/20 11:34:01;;;;;;;7.32;1.50;;;6.10;99.90;;;;;;5056073;28;20519;-83
2021/12/20 11:36:45;;;;;;;6.72;1.58;;;4.90;99.90;;;;;;5058141;28;20044;-83
2021/12/20 11:39:29;;;;;;;5.47;1.30;;;4.90;99.90;;;;;;5056925;28;20042;-83
2021/12/20 11:42:14;;;;;;;8.98;1.48;;;5.50;99.90;;;;;;5072255;28;20452;-84
2021/12/20 11:45:00;;;;;;;9.63;1.65;;;5.00;99.90;;;;;;5054848;28;20803;-83
2021/12/20 11:48:13;;;;;;;4.40;1.20;;;5.00;99.90;;;;;;5072572;28;20040;-83
2021/12/20 11:50:58;;;;;;;9.57;1.80;;;5.00;99.90;;;;;;5072504;28;20082;-82
2021/12/20 11:53:42;;;;;;;5.68;1.55;;;5.00;99.90;;;;;;5072509;28;20428;-83
2021/12/20 11:56:36;;;;;;;;;;;5.30;99.90;;;;;;5071434;28;20082;-83
2021/12/20 11:59:51;;;;;;;8.90;1.45;;;5.00;99.90;;;;;;5071965;28;19915;-84
2021/12/20 12:02:42;;;;;;;9.02;2.35;;;5.00;99.90;;;;;;5070836;28;20031;-83
2021/12/20 12:05:51;;;;;;;4.72;1.10;;;4.90;99.90;;;;;;5070738;28;20103;-83
2021/12/20 12:08:39;;;;;;;5.15;1.40;;;5.00;99.90;;;;;;5071817;28;20078;-83
2021/12/20 12:11:23;;;;;;;8.43;1.27;;;5.00;99.90;;;;;;5070525;28;20059;-83
2021/12/20 12:14:19;;;;;;;6.13;1.42;;;5.90;99.90;;;;;;5072277;28;20094;-83
2021/12/20 12:17:09;;;;;;;2.47;1.10;;;5.00;99.90;;;;;;5052310;28;20040;-83
2021/12/20 12:19:54;;;;;;;5.03;1.10;;;5.50;99.90;;;;;;5052139;28;20389;-82
2021/12/20 12:22:42;;;;;;;5.50;1.13;;;5.10;99.90;;;;;;5050368;28;20036;-83
2021/12/20 12:25:45;;;;;;;4.30;1.20;;;5.70;99.90;;;;;;5050525;28;20056;-83
2021/12/20 12:28:55;;;;;;;4.13;1.13;;;5.10;99.90;;;;;;5050561;28;20121;-83
2021/12/20 12:31:53;;;;;;;1.80;0.70;;;5.20;99.90;;;;;;5051507;28;20115;-83
2021/12/20 12:34:43;;;;;;;5.53;1.20;;;5.70;99.90;;;;;;5050473;28;20079;-83
2021/12/20 12:37:32;;;;;;;5.55;1.13;;;6.30;99.90;;;;;;5051441;28;20103;-82
2021/12/20 12:41:31;;;;;;;7.03;1.38;;;5.20;99.90;;;;;;5109585;27;20610;-80
2021/12/20 12:44:22;;;;;;;4.65;1.17;;;5.20;99.90;;;;;;5109026;28;20085;-81
2021/12/20 12:47:13;;;;;;;5.22;1.00;;;5.30;99.90;;;;;;5108789;28;20169;-81
2021/12/20 12:49:57;;;;;;;5.88;1.02;;;6.20;99.90;;;;;;5109067;28;20499;-80
2021/12/20 12:52:45;;;;;;;6.20;1.85;;;5.30;99.90;;;;;;5108457;28;20086;-80
2021/12/20 12:55:30;;;;;;;6.05;1.60;;;5.20;99.90;;;;;;5119992;28;20037;-83
2021/12/20 12:58:21;;;;;;;5.07;1.15;;;5.80;99.90;;;;;;5108276;28;20030;-83
2021/12/20 13:01:05;;;;;;;5.82;2.95;;;5.60;99.90;;;;;;5108717;28;20561;-83
2021/12/20 13:03:49;;;;;;;27.20;2.25;;;5.20;99.90;;;;;;5108977;28;20503;-83
2021/12/20 13:06:34;;;;;;;6.30;1.58;;;6.00;99.90;;;;;;5107834;28;20061;-82
2021/12/20 13:09:31;;;;;;;4.15;1.30;;;5.30;99.90;;;;;;5109907;28;20034;-81
2021/12/20 13:12:26;;;;;;;3.05;0.90;;;5.30;99.90;;;;;;5108116;28;20031;-82
2021/12/20 13:15:16;;;;;;;;;;;5.90;99.90;;;;;;5109038;28;20039;-82
2021/12/20 13:18:12;;;;;;;2.40;0.85;;;5.20;99.90;;;;;;5109794;28;19915;-82
2021/12/20 13:21:01;;;;;;;3.92;1.05;;;5.20;99.90;;;;;;5109459;28;20043;-82
2021/12/20 13:23:48;;;;;;;6.55;1.10;;;5.90;99.90;;;;;;5095664;28;20744;-82
2021/12/20 13:26:32;;;;;;;2.85;0.90;;;5.20;99.90;;;;;;5086571;28;20087;-82
2021/12/20 13:29:17;;;;;;;4.35;1.20;;;6.10;99.90;;;;;;5088003;28;20499;-82
2021/12/20 13:32:09;;;;;;;2.25;0.80;;;6.30;99.90;;;;;;5107852;28;20039;-84
2021/12/20 13:34:56;;;;;;;3.53;0.85;;;5.30;99.90;;;;;;5107595;28;20043;-83
2021/12/20 13:37:40;;;;;;;1.48;0.80;;;5.30;99.90;;;;;;5106178;28;20047;-82
2021/12/20 13:40:59;;;;;;;3.53;0.77;;;5.40;99.90;;;;;;5107952;28;20161;-82
2021/12/20 13:43:47;;;;;;;6.03;1.92;;;5.30;99.90;;;;;;5107495;28;20442;-82
2021/12/20 13:49:22;;;;;;;2.88;1.55;;;5.40;99.90;;;;;;5108987;28;20127;-82
2021/12/20 13:52:10;;;;;;;2.13;0.90;;;5.30;99.90;;;;;;5098216;28;20466;-83
2021/12/20 13:54:54;;;;;;;6.40;1.50;;;5.30;99.90;;;;;;5094674;28;20040;-83
2021/12/20 13:57:40;;;;;;;4.88;1.23;;;5.20;99.90;;;;;;5093318;28;20043;-83
2021/12/20 14:00:24;;;;;;;3.67;1.05;;;5.20;99.90;;;;;;5095040;28;20097;-82
2021/12/20 14:03:08;;;;;;;3.38;0.90;;;5.20;99.90;;;;;;5094991;28;20074;-82
2021/12/20 14:05:53;;;;;;;2.40;0.93;;;5.20;99.90;;;;;;5093456;28;20718;-83
2021/12/20 14:08:37;;;;;;;3.05;0.93;;;5.20;99.90;;;;;;5086424;28;20135;-83
2021/12/20 14:11:21;;;;;;;3.53;1.00;;;5.80;99.90;;;;;;5093337;28;20066;-84
2021/12/20 14:14:11;;;;;;;3.03;0.88;;;5.10;99.90;;;;;;5116748;27;20093;-83
2021/12/20 14:17:00;;;;;;;4.65;1.42;;;5.40;99.90;;;;;;5082664;28;20039;-83
2021/12/20 14:20:05;;;;;;;3.63;1.33;;;4.30;99.90;;;;;;5082456;28;20499;-83
2021/12/20 14:23:00;;;;;;;5.82;1.00;;;4.90;99.90;;;;;;5092755;28;20097;-83
2021/12/20 14:25:47;;;;;;;3.97;1.13;;;4.90;99.90;;;;;;5078953;28;20043;-84
2021/12/20 14:28:37;;;;;;;4.93;1.27;;;4.80;99.90;;;;;;5090409;28;20035;-83
2021/12/20 14:31:30;;;;;;;8.85;1.73;;;4.80;99.90;;;;;;5094092;28;20069;-83
2021/12/20 14:34:14;;;;;;;3.05;1.30;;;5.30;99.90;;;;;;5079570;28;20082;-83
2021/12/20 14:37:08;;;;;;;2.63;0.80;;;5.40;99.90;;;;;;5091868;28;20608;-86
2021/12/20 14:39:52;;;;;;;2.38;0.82;;;4.60;99.90;;;;;;5099177;28;20516;-83
2021/12/20 14:42:38;;;;;;;3.67;1.10;;;4.60;99.90;;;;;;5068648;28;20043;-84
2021/12/20 14:45:22;;;;;;;2.97;1.00;;;5.20;99.90;;;;;;5097584;28;20089;-83
2021/12/20 14:48:22;;;;;;;2.35;1.15;;;4.40;99.90;;;;;;5083909;28;20103;-84
2021/12/20 14:51:26;;;;;;;4.15;1.20;;;4.40;99.90;;;;;;5098349;28;20046;-83
2021/12/20 14:54:21;;;;;;;4.55;1.05;;;4.30;99.90;;;;;;5099124;28;20038;-83
2021/12/20 14:57:16;;;;;;;4.60;1.20;;;4.20;99.90;;;;;;5098456;28;20034;-83
2021/12/20 15:00:04;;;;;;;3.42;1.30;;;4.20;99.90;;;;;;5113780;28;20711;-83
2021/12/20 15:02:48;;;;;;;3.33;1.30;;;4.10;99.90;;;;;;5089934;28;20522;-84
2021/12/20 15:05:33;;;;;;;7.78;1.75;;;4.50;99.90;;;;;;5114371;28;20058;-83
2021/12/20 15:08:17;;;;;;;7.97;1.48;;;4.30;99.90;;;;;;5097624;28;20509;-83
2021/12/20 15:11:01;;;;;;;6.03;1.48;;;3.90;99.90;;;;;;5097083;28;20045;-84
2021/12/20 15:13:46;;;;;;;5.32;1.40;;;4.90;99.90;;;;;;5112956;28;20108;-83
2021/12/20 15:16:31;;;;;;;3.67;1.33;;;4.00;99.90;;;;;;5098236;28;20043;-83
2021/12/20 15:19:17;;;;;;;7.20;1.77;;;3.60;99.90;;;;;;5098563;28;20043;-83
2021/12/20 15:22:02;;;;;;;4.95;1.52;;;3.90;99.90;;;;;;5098019;28;20038;-83
2021/12/20 15:24:46;;;;;;;8.88;1.58;;;3.40;99.90;;;;;;5098010;28;20043;-84